Time;durP1;ratioP1;P1;durP2;ratioP2;P2;SDS_P1;SDS_P2;PMS_P1;PMS_P2;Temp;Humidity;BMP_temperature;BMP_pressure;BME280_temperature;BME280_humidity;BME280_pressure;Samples;Min_cycle;Max_cycle;Signal;HPM_P1;HPM_P2
2023/12/11 00:00:52;;;;;;;;;0.33;0.33;;;;;;;;5072020;28;8975;-84
2023/12/11 00:03:20;;;;;;;;;2.33;1.00;;;;;;;;5071577;28;9190;-85
2023/12/11 00:05:48;;;;;;;;;2.00;2.00;;;;;;;;5070889;28;9115;-84
2023/12/11 00:08:15;;;;;;;;;3.00;1.00;;;;;;;;5071785;28;9011;-85
2023/12/11 00:10:43;;;;;;;;;2.00;1.00;;;;;;;;5072150;28;9023;-84
2023/12/11 00:13:10;;;;;;;;;1.00;1.00;;;;;;;;5072121;28;8942;-85
2023/12/11 00:15:37;;;;;;;;;0.67;0.67;;;;;;;;5072809;28;9084;-85
2023/12/11 00:18:05;;;;;;;;;4.00;2.00;;;;;;;;5071880;28;9775;-85
2023/12/11 00:20:34;;;;;;;;;1.67;1.67;;;;;;;;5072363;28;9067;-84
2023/12/11 00:23:02;;;;;;;;;2.00;1.00;;;;;;;;5071944;28;9014;-84
2023/12/11 00:25:29;;;;;;;;;1.00;1.00;;;;;;;;5072723;28;9708;-85
2023/12/11 00:27:57;;;;;;;;;1.00;1.00;;;;;;;;5071807;28;9091;-85
2023/12/11 00:30:24;;;;;;;;;2.00;0.00;;;;;;;;5071381;28;9767;-84
2023/12/11 00:32:53;;;;;;;;;3.67;2.00;;;;;;;;5071468;28;8944;-83
2023/12/11 00:35:20;;;;;;;;;4.00;1.67;;;;;;;;5071976;28;9091;-85
2023/12/11 00:37:49;;;;;;;;;0.00;0.00;;;;;;;;5071703;28;9010;-84
2023/12/11 00:40:16;;;;;;;;;1.00;1.00;;;;;;;;5071408;28;8978;-83
2023/12/11 00:42:44;;;;;;;;;1.00;1.00;;;;;;;;5071542;28;9080;-85
2023/12/11 00:45:13;;;;;;;;;0.00;0.00;;;;;;;;5071324;28;9621;-85
2023/12/11 00:47:41;;;;;;;;;1.00;1.00;;;;;;;;5061224;28;8881;-85
2023/12/11 00:50:09;;;;;;;;;1.25;0.00;;;;;;;;5071219;28;8969;-84
2023/12/11 00:52:36;;;;;;;;;2.00;0.00;;;;;;;;5071977;28;8885;-85
2023/12/11 00:55:06;;;;;;;;;1.00;1.00;;;;;;;;5071733;28;8916;-85
2023/12/11 00:57:33;;;;;;;;;2.00;0.00;;;;;;;;5071807;28;9076;-85
2023/12/11 01:00:01;;;;;;;;;1.00;1.00;;;;;;;;5071573;28;8839;-86
2023/12/11 01:02:28;;;;;;;;;1.00;1.00;;;;;;;;5071542;28;8892;-85
2023/12/11 01:04:57;;;;;;;;;4.00;1.00;;;;;;;;5071534;28;8936;-85
2023/12/11 01:07:25;;;;;;;;;2.00;0.00;;;;;;;;5071472;28;8958;-85
2023/12/11 01:09:52;;;;;;;;;1.50;0.00;;;;;;;;5071111;28;8941;-84
2023/12/11 01:12:21;;;;;;;;;1.00;1.00;;;;;;;;5071485;28;8859;-85
2023/12/11 01:14:48;;;;;;;;;0.25;0.25;;;;;;;;5071366;28;8932;-86
2023/12/11 01:17:15;;;;;;;;;0.00;0.00;;;;;;;;5070329;28;8901;-84
2023/12/11 01:19:43;;;;;;;;;0.75;0.75;;;;;;;;5071307;28;9710;-85
2023/12/11 01:22:10;;;;;;;;;1.25;1.25;;;;;;;;5066884;28;8932;-84
2023/12/11 01:24:37;;;;;;;;;2.00;0.67;;;;;;;;5071824;28;8861;-84
2023/12/11 01:27:05;;;;;;;;;3.00;1.25;;;;;;;;5071664;28;8922;-85
2023/12/11 01:29:34;;;;;;;;;1.75;1.75;;;;;;;;5074340;28;8859;-84
2023/12/11 01:32:01;;;;;;;;;2.00;0.67;;;;;;;;5075193;28;8783;-85
2023/12/11 01:34:29;;;;;;;;;1.00;1.00;;;;;;;;5077705;28;8962;-84
2023/12/11 01:36:56;;;;;;;;;0.50;0.50;;;;;;;;5077782;28;8890;-84
2023/12/11 01:39:23;;;;;;;;;1.00;1.00;;;;;;;;5077362;28;8943;-84
2023/12/11 01:41:51;;;;;;;;;1.00;1.00;;;;;;;;5078028;28;8863;-85
2023/12/11 01:44:21;;;;;;;;;2.33;0.33;;;;;;;;5076108;28;8858;-85
2023/12/11 01:46:50;;;;;;;;;1.00;1.00;;;;;;;;5071693;28;9072;-85
2023/12/11 01:49:18;;;;;;;;;2.25;0.00;;;;;;;;5073292;28;8854;-85
2023/12/11 01:51:47;;;;;;;;;1.00;1.00;;;;;;;;5074439;28;8874;-85
2023/12/11 01:54:16;;;;;;;;;2.50;1.50;;;;;;;;5074387;28;8866;-85
2023/12/11 01:56:43;;;;;;;;;2.25;1.00;;;;;;;;5071883;28;8839;-83
2023/12/11 01:59:17;;;;;;;;;3.00;0.50;;;;;;;;5069477;28;8901;-85
2023/12/11 02:01:45;;;;;;;;;2.00;0.00;;;;;;;;5068594;28;8787;-85
2023/12/11 02:04:15;;;;;;;;;1.00;1.00;;;;;;;;5069083;28;9025;-85
2023/12/11 02:06:43;;;;;;;;;6.00;2.00;;;;;;;;5070358;28;8846;-85
2023/12/11 02:09:12;;;;;;;;;1.25;1.00;;;;;;;;5069817;28;9005;-85
2023/12/11 02:11:39;;;;;;;;;2.00;0.75;;;;;;;;5057545;28;8888;-85
2023/12/11 02:14:07;;;;;;;;;2.67;1.00;;;;;;;;5070221;28;8883;-85
2023/12/11 02:16:34;;;;;;;;;3.00;2.00;;;;;;;;5070203;28;9065;-84
2023/12/11 02:19:04;;;;;;;;;2.67;2.67;;;;;;;;5070506;28;8946;-84
2023/12/11 02:21:33;;;;;;;;;5.33;3.00;;;;;;;;5060891;28;9020;-84
2023/12/11 02:24:04;;;;;;;;;2.00;1.00;;;;;;;;5070342;28;9101;-84
2023/12/11 02:26:33;;;;;;;;;3.33;2.00;;;;;;;;5069453;28;8869;-84
2023/12/11 02:29:01;;;;;;;;;1.33;1.00;;;;;;;;5069889;28;8937;-84
2023/12/11 02:31:28;;;;;;;;;2.00;1.00;;;;;;;;5079789;28;8989;-85
2023/12/11 02:33:55;;;;;;;;;2.00;2.00;;;;;;;;5079977;28;8847;-85
2023/12/11 02:36:23;;;;;;;;;1.67;1.67;;;;;;;;5069190;28;9034;-86
2023/12/11 02:38:50;;;;;;;;;1.00;1.00;;;;;;;;5071395;28;9031;-85
2023/12/11 02:41:17;;;;;;;;;2.00;2.00;;;;;;;;5072073;28;9091;-84
2023/12/11 02:43:47;;;;;;;;;3.00;1.33;;;;;;;;5071286;28;9021;-85
2023/12/11 02:46:15;;;;;;;;;1.00;1.00;;;;;;;;5069253;28;9115;-84
2023/12/11 02:48:42;;;;;;;;;3.67;2.00;;;;;;;;5069830;28;8944;-84
2023/12/11 02:51:10;;;;;;;;;2.00;2.00;;;;;;;;5069436;28;9088;-85
2023/12/11 02:53:37;;;;;;;;;3.00;2.00;;;;;;;;5070761;28;8961;-84
2023/12/11 02:56:05;;;;;;;;;1.33;1.33;;;;;;;;5069349;28;8954;-84
2023/12/11 02:58:33;;;;;;;;;3.00;2.33;;;;;;;;5069570;28;9004;-85
2023/12/11 03:01:04;;;;;;;;;1.67;1.00;;;;;;;;5067965;28;9003;-84
2023/12/11 03:03:32;;;;;;;;;6.00;1.67;;;;;;;;5069591;28;9026;-84
2023/12/11 03:06:03;;;;;;;;;3.00;1.00;;;;;;;;5069864;28;9082;-84
2023/12/11 03:08:30;;;;;;;;;2.00;1.67;;;;;;;;5069665;28;9223;-84
2023/12/11 03:10:57;;;;;;;;;1.67;1.67;;;;;;;;5069357;28;9028;-82
2023/12/11 03:13:25;;;;;;;;;6.67;3.33;;;;;;;;5068398;28;9023;-84
2023/12/11 03:15:52;;;;;;;;;1.33;1.33;;;;;;;;5051380;28;9030;-84
2023/12/11 03:18:21;;;;;;;;;2.33;1.00;;;;;;;;5067175;28;8934;-84
2023/12/11 03:20:48;;;;;;;;;1.00;1.00;;;;;;;;5073409;28;9091;-84
2023/12/11 03:23:15;;;;;;;;;3.00;3.00;;;;;;;;5073986;28;8873;-82
2023/12/11 03:25:43;;;;;;;;;3.00;3.00;;;;;;;;5075444;28;9140;-83
2023/12/11 03:28:10;;;;;;;;;4.00;3.00;;;;;;;;5076078;28;9107;-84
2023/12/11 03:30:37;;;;;;;;;4.00;2.33;;;;;;;;5066469;28;8986;-85
2023/12/11 03:33:05;;;;;;;;;3.67;1.33;;;;;;;;5074455;28;9039;-85
2023/12/11 03:35:34;;;;;;;;;2.00;2.00;;;;;;;;5072216;28;8942;-85
2023/12/11 03:38:01;;;;;;;;;1.00;1.00;;;;;;;;5070547;28;8962;-85
2023/12/11 03:40:29;;;;;;;;;5.67;4.33;;;;;;;;5071569;28;9009;-84
2023/12/11 03:42:56;;;;;;;;;2.67;2.67;;;;;;;;5076869;28;8987;-84
2023/12/11 03:45:23;;;;;;;;;4.33;1.33;;;;;;;;5076190;28;8953;-85
2023/12/11 03:47:51;;;;;;;;;2.00;2.00;;;;;;;;5073714;28;9023;-85
2023/12/11 03:50:18;;;;;;;;;1.00;1.00;;;;;;;;5104536;28;9060;-84
2023/12/11 03:52:47;;;;;;;;;4.00;2.00;;;;;;;;5072203;28;8879;-84
2023/12/11 03:55:15;;;;;;;;;3.00;1.75;;;;;;;;5072953;28;9870;-86
2023/12/11 03:57:42;;;;;;;;;2.00;1.00;;;;;;;;5072113;28;8854;-85
2023/12/11 04:00:10;;;;;;;;;3.00;3.00;;;;;;;;5071720;28;8946;-84
2023/12/11 04:02:38;;;;;;;;;5.67;3.67;;;;;;;;5072118;28;9248;-84
2023/12/11 04:05:06;;;;;;;;;7.67;4.00;;;;;;;;5072169;28;9107;-83
2023/12/11 04:07:33;;;;;;;;;5.25;2.00;;;;;;;;5071758;28;9000;-83
2023/12/11 04:10:07;;;;;;;;;3.33;2.00;;;;;;;;5072566;28;8862;-85
2023/12/11 04:12:34;;;;;;;;;2.67;1.00;;;;;;;;5072387;28;9789;-85
2023/12/11 04:15:02;;;;;;;;;3.00;1.67;;;;;;;;5071864;28;9019;-84
2023/12/11 04:17:30;;;;;;;;;3.00;2.00;;;;;;;;5072260;28;9034;-84
2023/12/11 04:19:58;;;;;;;;;4.00;2.00;;;;;;;;5071697;28;9147;-84
2023/12/11 04:22:28;;;;;;;;;1.00;1.00;;;;;;;;5062689;28;9034;-84
2023/12/11 04:24:56;;;;;;;;;2.00;2.00;;;;;;;;5072059;28;9108;-84
2023/12/11 04:27:25;;;;;;;;;3.33;2.00;;;;;;;;5073767;28;9018;-83
2023/12/11 04:29:52;;;;;;;;;4.00;2.00;;;;;;;;5073406;28;9017;-84
2023/12/11 04:32:20;;;;;;;;;3.33;2.33;;;;;;;;5070936;28;8974;-84
2023/12/11 04:34:47;;;;;;;;;1.67;1.67;;;;;;;;5071358;28;9107;-84
2023/12/11 04:37:14;;;;;;;;;3.00;2.00;;;;;;;;5071276;28;8927;-86
2023/12/11 04:39:42;;;;;;;;;3.00;3.00;;;;;;;;5071371;28;9111;-85
2023/12/11 04:42:09;;;;;;;;;3.00;3.00;;;;;;;;5072118;28;9059;-84
2023/12/11 04:44:39;;;;;;;;;5.00;3.00;;;;;;;;5070835;28;9160;-84
2023/12/11 04:47:07;;;;;;;;;7.00;2.00;;;;;;;;5070159;28;9022;-84
2023/12/11 04:49:34;;;;;;;;;4.00;3.00;;;;;;;;5071214;28;8958;-85
2023/12/11 04:52:02;;;;;;;;;3.00;3.00;;;;;;;;5071725;28;9028;-84
2023/12/11 04:54:29;;;;;;;;;1.00;1.00;;;;;;;;5070897;28;9115;-85
2023/12/11 04:56:57;;;;;;;;;4.00;3.00;;;;;;;;5071500;28;9049;-85
2023/12/11 04:59:25;;;;;;;;;4.00;2.00;;;;;;;;5073656;28;9001;-85
2023/12/11 05:01:53;;;;;;;;;1.50;1.50;;;;;;;;5070008;28;8882;-83
2023/12/11 05:04:21;;;;;;;;;2.00;2.00;;;;;;;;5072346;28;8843;-83
2023/12/11 05:06:48;;;;;;;;;6.33;2.67;;;;;;;;5071907;28;8942;-83
2023/12/11 05:09:16;;;;;;;;;2.33;2.33;;;;;;;;5072738;28;8938;-82
2023/12/11 05:11:43;;;;;;;;;2.50;2.50;;;;;;;;5073504;28;9123;-86
2023/12/11 05:14:13;;;;;;;;;7.67;4.00;;;;;;;;5076070;28;8873;-84
2023/12/11 05:16:41;;;;;;;;;7.00;3.00;;;;;;;;5076333;28;9018;-86
2023/12/11 05:19:10;;;;;;;;;4.00;1.33;;;;;;;;5077469;28;9071;-84
2023/12/11 05:21:37;;;;;;;;;4.33;1.00;;;;;;;;5074050;28;9035;-83
2023/12/11 05:24:05;;;;;;;;;4.00;4.00;;;;;;;;5075796;28;9053;-85
2023/12/11 05:26:33;;;;;;;;;4.00;2.33;;;;;;;;5072783;28;8999;-83
2023/12/11 05:29:03;;;;;;;;;5.00;3.00;;;;;;;;5071315;28;9033;-82
2023/12/11 05:31:31;;;;;;;;;4.50;1.00;;;;;;;;5072975;28;9010;-84
2023/12/11 05:34:02;;;;;;;;;3.67;3.00;;;;;;;;5075321;28;8947;-84
2023/12/11 05:36:33;;;;;;;;;2.00;2.00;;;;;;;;5073683;28;9072;-85
2023/12/11 05:39:00;;;;;;;;;4.33;2.00;;;;;;;;5071352;28;8963;-82
2023/12/11 05:41:30;;;;;;;;;5.67;3.00;;;;;;;;5069779;28;9913;-83
2023/12/11 05:43:59;;;;;;;;;5.00;4.00;;;;;;;;5069973;28;9186;-84
2023/12/11 05:46:26;;;;;;;;;2.67;2.00;;;;;;;;5068736;28;9265;-85
2023/12/11 05:48:54;;;;;;;;;2.67;2.00;;;;;;;;5057576;28;9109;-83
2023/12/11 05:51:22;;;;;;;;;4.33;2.67;;;;;;;;5057464;28;9029;-84
2023/12/11 05:53:51;;;;;;;;;3.00;2.67;;;;;;;;5070551;28;9219;-82
2023/12/11 05:56:19;;;;;;;;;3.00;3.00;;;;;;;;5069313;28;9188;-82
2023/12/11 05:58:46;;;;;;;;;8.33;3.00;;;;;;;;5069636;28;9229;-80
2023/12/11 06:01:14;;;;;;;;;4.00;2.33;;;;;;;;5071487;28;9194;-87
2023/12/11 06:03:41;;;;;;;;;3.67;3.67;;;;;;;;5078512;28;9194;-88
2023/12/11 06:06:16;;;;;;;;;4.00;3.00;;;;;;;;5070098;28;9258;-79
2023/12/11 06:08:43;;;;;;;;;8.00;3.00;;;;;;;;5069429;28;8941;-82
2023/12/11 06:11:12;;;;;;;;;3.67;2.67;;;;;;;;5069003;28;9268;-81
2023/12/11 06:13:39;;;;;;;;;4.00;2.33;;;;;;;;5069507;28;9000;-83
2023/12/11 06:16:20;;;;;;;;;3.67;1.67;;;;;;;;5070803;28;9087;-73
2023/12/11 06:18:50;;;;;;;;;3.00;3.00;;;;;;;;5075053;28;8922;-79
2023/12/11 06:21:20;;;;;;;;;7.67;3.00;;;;;;;;5060595;28;8932;-81
2023/12/11 06:23:58;;;;;;;;;5.67;3.00;;;;;;;;5068542;28;9028;-73
2023/12/11 06:26:30;;;;;;;;;3.33;3.33;;;;;;;;5068906;28;9029;-85
2023/12/11 06:28:59;;;;;;;;;4.33;2.67;;;;;;;;5069722;28;9714;-84
2023/12/11 06:31:27;;;;;;;;;5.67;3.33;;;;;;;;5069759;28;8949;-85
2023/12/11 06:33:56;;;;;;;;;4.67;1.33;;;;;;;;5069903;28;9065;-74
2023/12/11 06:36:25;;;;;;;;;3.33;2.00;;;;;;;;5068509;28;10175;-87
2023/12/11 06:38:52;;;;;;;;;4.00;3.00;;;;;;;;5069778;28;9009;-78
2023/12/11 06:41:20;;;;;;;;;8.67;3.00;;;;;;;;5068908;28;9263;-90
2023/12/11 06:43:54;;;;;;;;;4.00;2.00;;;;;;;;5070344;28;9171;-83
2023/12/11 06:46:21;;;;;;;;;2.33;1.00;;;;;;;;5069688;28;9286;-86
2023/12/11 06:48:48;;;;;;;;;3.00;3.00;;;;;;;;5069030;28;9087;-84
2023/12/11 06:51:16;;;;;;;;;4.00;2.00;;;;;;;;5069486;28;9194;-89
2023/12/11 06:53:44;;;;;;;;;11.00;5.00;;;;;;;;5070593;28;9325;-77
2023/12/11 06:56:18;;;;;;;;;7.00;5.00;;;;;;;;5071633;28;9381;-86
2023/12/11 06:58:46;;;;;;;;;4.00;3.00;;;;;;;;5073430;28;9393;-86
2023/12/11 07:01:20;;;;;;;;;7.33;2.33;;;;;;;;5074422;28;9181;-80
2023/12/11 07:03:48;;;;;;;;;5.33;3.00;;;;;;;;5075524;28;9454;-79
2023/12/11 07:06:17;;;;;;;;;7.67;2.33;;;;;;;;5076328;28;9248;-89
2023/12/11 07:08:44;;;;;;;;;4.67;3.00;;;;;;;;5076349;28;9282;-74
2023/12/11 07:11:11;;;;;;;;;4.00;2.67;;;;;;;;5077315;28;9099;-81
2023/12/11 07:13:40;;;;;;;;;6.33;3.00;;;;;;;;5073466;28;9348;-85
2023/12/11 07:16:08;;;;;;;;;4.00;4.00;;;;;;;;5070606;28;9286;-87
2023/12/11 07:18:37;;;;;;;;;2.67;2.67;;;;;;;;5072490;28;9162;-88
2023/12/11 07:21:09;;;;;;;;;4.00;2.00;;;;;;;;5072094;28;9167;-77
2023/12/11 07:23:36;;;;;;;;;6.33;5.00;;;;;;;;5071879;28;9176;-84
2023/12/11 07:26:10;;;;;;;;;6.00;3.00;;;;;;;;5068619;28;9267;-81
2023/12/11 07:28:37;;;;;;;;;4.67;2.00;;;;;;;;5067378;28;9174;-87
2023/12/11 07:31:06;;;;;;;;;4.00;2.00;;;;;;;;5067337;28;9237;-80
2023/12/11 07:33:35;;;;;;;;;5.67;2.33;;;;;;;;5067666;28;9241;-91
2023/12/11 07:36:04;;;;;;;;;4.67;4.67;;;;;;;;5066472;28;9961;-77
2023/12/11 07:38:31;;;;;;;;;4.00;2.00;;;;;;;;5069456;28;9479;-83
2023/12/11 07:40:59;;;;;;;;;6.00;4.00;;;;;;;;5070888;28;9312;-85
2023/12/11 07:43:27;;;;;;;;;4.67;3.33;;;;;;;;5074099;28;9174;-87
2023/12/11 07:45:54;;;;;;;;;3.00;1.67;;;;;;;;5068733;28;9247;-87
2023/12/11 07:48:21;;;;;;;;;7.33;3.67;;;;;;;;5070298;28;9197;-88
2023/12/11 07:50:55;;;;;;;;;3.67;2.33;;;;;;;;5066922;28;9359;-89
2023/12/11 07:53:22;;;;;;;;;7.00;3.00;;;;;;;;5068206;28;9280;-85
2023/12/11 07:55:49;;;;;;;;;7.00;2.00;;;;;;;;5068871;28;9483;-82
2023/12/11 07:58:19;;;;;;;;;4.67;3.33;;;;;;;;5068506;28;9220;-83
2023/12/11 08:00:47;;;;;;;;;3.67;2.00;;;;;;;;5067743;28;9138;-79
2023/12/11 08:03:14;;;;;;;;;2.00;2.00;;;;;;;;5070689;28;9263;-81
2023/12/11 08:05:41;;;;;;;;;6.67;3.33;;;;;;;;5068996;28;9264;-82
2023/12/11 08:08:13;;;;;;;;;5.00;2.00;;;;;;;;5068971;28;9254;-75
2023/12/11 08:10:40;;;;;;;;;4.33;2.67;;;;;;;;5067444;28;9249;-78
2023/12/11 08:13:07;;;;;;;;;4.00;2.67;;;;;;;;5068670;28;9257;-79
2023/12/11 08:15:37;;;;;;;;;7.00;2.00;;;;;;;;5067385;28;9190;-77
2023/12/11 08:18:05;;;;;;;;;4.33;3.00;;;;;;;;5067182;28;9205;-79
2023/12/11 08:20:33;;;;;;;;;3.33;3.00;;;;;;;;5063267;28;9010;-77
2023/12/11 08:23:00;;;;;;;;;5.67;4.00;;;;;;;;5061857;28;9201;-79
2023/12/11 08:25:32;;;;;;;;;5.00;3.33;;;;;;;;5067538;28;9181;-76
2023/12/11 08:28:00;;;;;;;;;5.67;2.00;;;;;;;;5069465;28;9078;-76
2023/12/11 08:30:27;;;;;;;;;3.00;1.67;;;;;;;;5060339;28;9094;-76
2023/12/11 08:32:54;;;;;;;;;7.00;2.00;;;;;;;;5070366;28;8985;-77
2023/12/11 08:35:22;;;;;;;;;4.33;3.00;;;;;;;;5059729;28;9066;-80
2023/12/11 08:37:49;;;;;;;;;3.00;3.00;;;;;;;;5070801;28;10239;-75
2023/12/11 08:40:16;;;;;;;;;3.33;2.00;;;;;;;;5071594;28;9126;-85
2023/12/11 08:42:45;;;;;;;;;4.00;4.00;;;;;;;;5073398;28;9109;-78
2023/12/11 08:45:13;;;;;;;;;5.00;4.33;;;;;;;;5075660;28;9089;-80
2023/12/11 08:47:44;;;;;;;;;4.33;3.00;;;;;;;;5075033;28;9173;-75
2023/12/11 08:50:11;;;;;;;;;2.33;2.33;;;;;;;;5076484;28;9105;-74
2023/12/11 08:52:38;;;;;;;;;4.00;3.00;;;;;;;;5075146;28;9090;-76
2023/12/11 08:55:06;;;;;;;;;5.67;3.33;;;;;;;;5075576;28;9106;-80
2023/12/11 08:57:34;;;;;;;;;3.00;2.33;;;;;;;;5076736;28;9064;-76
2023/12/11 09:00:05;;;;;;;;;5.00;3.00;;;;;;;;5074358;28;9228;-76
2023/12/11 09:02:32;;;;;;;;;8.33;5.00;;;;;;;;5070028;28;9083;-78
2023/12/11 09:05:02;;;;;;;;;4.33;2.33;;;;;;;;5070976;28;9003;-79
2023/12/11 09:07:39;;;;;;;;;4.67;4.00;;;;;;;;5070347;28;9015;-75
2023/12/11 09:10:08;;;;;;;;;4.33;1.67;;;;;;;;5073273;28;8942;-79
2023/12/11 09:12:35;;;;;;;;;7.67;4.33;;;;;;;;5071152;28;9076;-77
2023/12/11 09:15:05;;;;;;;;;8.00;3.00;;;;;;;;5069752;28;9154;-79
2023/12/11 09:17:32;;;;;;;;;7.50;3.00;;;;;;;;5070331;28;9453;-78
2023/12/11 09:20:03;;;;;;;;;5.00;3.00;;;;;;;;5068269;28;8907;-78
2023/12/11 09:22:30;;;;;;;;;3.25;2.00;;;;;;;;5061817;28;9078;-75
2023/12/11 09:24:58;;;;;;;;;3.00;2.00;;;;;;;;5070602;28;8843;-74
2023/12/11 09:27:27;;;;;;;;;5.67;3.33;;;;;;;;5071039;28;8897;-77
2023/12/11 09:29:54;;;;;;;;;2.50;2.00;;;;;;;;5074801;28;8937;-78
2023/12/11 09:32:23;;;;;;;;;7.50;2.75;;;;;;;;5068918;28;8811;-76
2023/12/11 09:34:51;;;;;;;;;2.00;2.00;;;;;;;;5068124;28;8851;-73
2023/12/11 09:37:19;;;;;;;;;4.00;3.00;;;;;;;;5069577;28;8870;-78
2023/12/11 09:39:47;;;;;;;;;5.75;3.00;;;;;;;;5067843;28;8916;-74
2023/12/11 09:42:15;;;;;;;;;7.33;4.00;;;;;;;;5069183;28;8859;-78
2023/12/11 09:44:45;;;;;;;;;6.33;4.67;;;;;;;;5069132;28;8949;-75
2023/12/11 09:47:16;;;;;;;;;7.33;3.00;;;;;;;;5068934;28;9056;-78
2023/12/11 09:49:46;;;;;;;;;7.67;5.33;;;;;;;;5069679;28;8969;-78
2023/12/11 09:52:14;;;;;;;;;5.00;3.25;;;;;;;;5070465;28;8961;-76
2023/12/11 09:54:41;;;;;;;;;9.67;5.00;;;;;;;;5073458;28;8851;-74
2023/12/11 09:57:11;;;;;;;;;4.00;4.00;;;;;;;;5069652;28;9018;-75
2023/12/11 09:59:38;;;;;;;;;8.00;4.00;;;;;;;;5069349;28;8970;-75
2023/12/11 10:02:12;;;;;;;;;3.75;2.00;;;;;;;;5068181;28;8811;-75
2023/12/11 10:04:39;;;;;;;;;4.00;3.25;;;;;;;;5069439;28;8855;-77
2023/12/11 10:07:08;;;;;;;;;7.50;4.75;;;;;;;;5068316;28;8847;-79
2023/12/11 10:09:35;;;;;;;;;3.75;2.00;;;;;;;;5069285;28;8878;-76
2023/12/11 10:12:04;;;;;;;;;4.25;2.50;;;;;;;;5068672;28;8863;-78
2023/12/11 10:14:31;;;;;;;;;3.75;3.75;;;;;;;;5069634;28;8862;-78
2023/12/11 10:16:59;;;;;;;;;5.25;4.25;;;;;;;;5068578;28;8871;-78
2023/12/11 10:19:32;;;;;;;;;7.75;5.25;;;;;;;;5069184;28;8863;-79
2023/12/11 10:22:03;;;;;;;;;7.00;5.25;;;;;;;;5059166;28;8935;-79
2023/12/11 10:24:32;;;;;;;;;4.75;3.00;;;;;;;;5068816;28;8855;-77
2023/12/11 10:27:03;;;;;;;;;6.25;3.50;;;;;;;;5068758;28;8870;-78
2023/12/11 10:29:31;;;;;;;;;4.25;3.50;;;;;;;;5069328;28;8851;-76
2023/12/11 10:32:02;;;;;;;;;5.00;5.00;;;;;;;;5070138;28;8926;-76
2023/12/11 10:34:45;;;;;;;;;9.00;3.25;;;;;;;;5070393;28;8885;-77
2023/12/11 10:37:13;;;;;;;;;6.00;4.75;;;;;;;;5070386;28;8901;-73
2023/12/11 10:39:52;;;;;;;;;6.25;4.00;;;;;;;;5071739;28;8882;-77
2023/12/11 10:42:20;;;;;;;;;7.50;3.00;;;;;;;;5073546;28;8847;-76
2023/12/11 10:44:47;;;;;;;;;7.75;3.00;;;;;;;;5072651;28;8843;-78
2023/12/11 10:47:14;;;;;;;;;6.50;4.75;;;;;;;;5071718;28;8881;-78
2023/12/11 10:49:42;;;;;;;;;4.00;4.00;;;;;;;;5071626;28;8940;-78
2023/12/11 10:52:09;;;;;;;;;3.00;3.00;;;;;;;;5072084;28;8854;-80
2023/12/11 10:54:37;;;;;;;;;9.25;3.50;;;;;;;;5070681;28;8946;-81
2023/12/11 10:57:09;;;;;;;;;5.00;3.50;;;;;;;;5073537;28;9017;-75
2023/12/11 10:59:37;;;;;;;;;7.50;4.00;;;;;;;;5073342;28;8866;-78
2023/12/11 11:02:05;;;;;;;;;3.75;2.00;;;;;;;;5071680;28;8799;-73
2023/12/11 11:04:34;;;;;;;;;5.25;4.00;;;;;;;;5065442;28;8846;-81
2023/12/11 11:07:12;;;;;;;;;6.00;4.25;;;;;;;;5071242;28;9651;-74
2023/12/11 11:09:45;;;;;;;;;5.00;3.50;;;;;;;;5068200;28;8993;-80
2023/12/11 11:12:20;;;;;;;;;6.25;6.00;;;;;;;;5067744;28;8961;-76
2023/12/11 11:14:49;;;;;;;;;5.75;4.50;;;;;;;;5067237;28;8881;-78
2023/12/11 11:17:17;;;;;;;;;7.75;5.00;;;;;;;;5067702;28;8873;-83
2023/12/11 11:20:10;;;;;;;;;7.75;4.00;;;;;;;;5067544;28;9744;-75
2023/12/11 11:22:37;;;;;;;;;8.00;4.25;;;;;;;;5062342;28;8861;-80
2023/12/11 11:25:36;;;;;;;;;4.50;3.50;;;;;;;;5071496;28;8944;-79
2023/12/11 11:28:05;;;;;;;;;7.25;4.00;;;;;;;;5069681;28;8947;-80
2023/12/11 11:30:49;;;;;;;;;3.25;3.25;;;;;;;;5067523;28;9564;-79
2023/12/11 11:33:16;;;;;;;;;5.75;4.00;;;;;;;;5066240;28;9013;-74
2023/12/11 11:35:54;;;;;;;;;3.50;3.00;;;;;;;;5066814;28;8850;-75
2023/12/11 11:38:23;;;;;;;;;5.00;4.00;;;;;;;;5066790;28;8843;-75
2023/12/11 11:40:52;;;;;;;;;5.50;5.00;;;;;;;;5068643;28;8869;-78
2023/12/11 11:43:21;;;;;;;;;4.00;3.00;;;;;;;;5069536;28;8862;-80
2023/12/11 11:45:55;;;;;;;;;5.25;3.00;;;;;;;;5069304;28;8879;-75
2023/12/11 11:48:22;;;;;;;;;3.00;3.00;;;;;;;;5058434;28;8871;-75
2023/12/11 11:50:54;;;;;;;;;5.75;5.00;;;;;;;;5067288;28;8862;-72
2023/12/11 11:53:22;;;;;;;;;8.75;5.75;;;;;;;;5067451;28;8885;-75
2023/12/11 11:55:50;;;;;;;;;10.75;3.00;;;;;;;;5067269;28;8859;-75
2023/12/11 11:58:17;;;;;;;;;3.75;3.25;;;;;;;;5067650;28;8881;-74
2023/12/11 12:00:46;;;;;;;;;6.25;3.00;;;;;;;;5066430;28;9628;-73
2023/12/11 12:03:14;;;;;;;;;5.00;4.25;;;;;;;;5071175;28;8834;-77
2023/12/11 12:05:55;;;;;;;;;7.00;4.00;;;;;;;;5071718;28;8855;-78
2023/12/11 12:08:23;;;;;;;;;3.00;2.50;;;;;;;;5071284;28;9622;-76
2023/12/11 12:10:50;;;;;;;;;6.00;4.00;;;;;;;;5071661;28;8963;-78
2023/12/11 12:13:17;;;;;;;;;3.75;2.50;;;;;;;;5071416;28;8915;-80
2023/12/11 12:15:46;;;;;;;;;9.00;5.00;;;;;;;;5072355;28;8847;-80
2023/12/11 12:18:14;;;;;;;;;4.00;4.00;;;;;;;;5072847;28;8877;-78
2023/12/11 12:20:41;;;;;;;;;4.50;3.75;;;;;;;;5074240;28;8863;-77
2023/12/11 12:23:08;;;;;;;;;7.00;4.00;;;;;;;;5073040;28;8869;-80
2023/12/11 12:25:36;;;;;;;;;6.00;4.25;;;;;;;;5063473;28;8858;-77
2023/12/11 12:28:06;;;;;;;;;7.00;5.00;;;;;;;;5073456;28;8981;-76
2023/12/11 12:30:34;;;;;;;;;5.00;4.50;;;;;;;;5074074;28;8779;-78
2023/12/11 12:33:03;;;;;;;;;3.50;3.50;;;;;;;;5074248;28;9089;-78
2023/12/11 12:35:31;;;;;;;;;5.00;3.00;;;;;;;;5073338;28;8843;-74
2023/12/11 12:37:59;;;;;;;;;5.00;4.50;;;;;;;;5070657;28;8831;-76
2023/12/11 12:40:27;;;;;;;;;9.50;5.25;;;;;;;;5068620;28;8854;-75
2023/12/11 12:42:54;;;;;;;;;11.00;4.75;;;;;;;;5070718;28;8893;-74
2023/12/11 12:45:32;;;;;;;;;4.25;4.25;;;;;;;;5071501;28;8931;-75
2023/12/11 12:47:59;;;;;;;;;4.75;3.25;;;;;;;;5072139;28;8937;-76
2023/12/11 12:50:28;;;;;;;;;3.75;2.25;;;;;;;;5070811;28;9680;-76
2023/12/11 12:53:05;;;;;;;;;7.75;6.00;;;;;;;;5069237;28;8905;-73
2023/12/11 12:55:33;;;;;;;;;6.75;4.25;;;;;;;;5069981;28;8850;-74
2023/12/11 12:58:00;;;;;;;;;4.25;4.25;;;;;;;;5070122;28;8854;-76
2023/12/11 13:00:28;;;;;;;;;4.75;4.00;;;;;;;;5069723;28;8758;-76
2023/12/11 13:02:55;;;;;;;;;5.00;4.00;;;;;;;;5069335;28;8851;-77
2023/12/11 13:05:23;;;;;;;;;4.25;2.50;;;;;;;;5069650;28;8867;-75
2023/12/11 13:08:02;;;;;;;;;3.50;2.00;;;;;;;;5074995;28;8838;-76
2023/12/11 13:10:32;;;;;;;;;6.50;4.25;;;;;;;;5069567;28;8862;-77
2023/12/11 13:12:59;;;;;;;;;6.00;4.00;;;;;;;;5069765;28;9025;-73
2023/12/11 13:15:26;;;;;;;;;4.00;4.00;;;;;;;;5069830;28;8843;-75
2023/12/11 13:17:54;;;;;;;;;4.25;4.00;;;;;;;;5069599;28;9651;-73
2023/12/11 13:20:21;;;;;;;;;9.00;3.75;;;;;;;;5067106;28;8847;-76
2023/12/11 13:22:49;;;;;;;;;4.50;4.50;;;;;;;;5069471;28;8859;-78
2023/12/11 13:25:17;;;;;;;;;4.75;3.50;;;;;;;;5069933;28;8862;-77
2023/12/11 13:27:46;;;;;;;;;7.00;5.25;;;;;;;;5070073;28;8847;-75
2023/12/11 13:30:16;;;;;;;;;7.25;5.00;;;;;;;;5070039;28;8862;-77
2023/12/11 13:32:44;;;;;;;;;6.00;3.00;;;;;;;;5071567;28;8943;-78
2023/12/11 13:35:11;;;;;;;;;8.25;5.25;;;;;;;;5065890;28;8842;-78
2023/12/11 13:37:38;;;;;;;;;1.50;1.50;;;;;;;;5070891;28;8955;-77
2023/12/11 13:40:12;;;;;;;;;5.00;3.25;;;;;;;;5069767;28;8877;-76
2023/12/11 13:42:41;;;;;;;;;4.25;4.25;;;;;;;;5069298;28;8843;-77
2023/12/11 13:45:09;;;;;;;;;6.00;4.00;;;;;;;;5069233;28;8867;-73
2023/12/11 13:47:36;;;;;;;;;7.75;4.00;;;;;;;;5069156;28;8883;-72
2023/12/11 13:50:12;;;;;;;;;7.25;5.00;;;;;;;;5069121;28;8868;-74
2023/12/11 13:52:40;;;;;;;;;6.50;4.25;;;;;;;;5068557;28;8850;-74
2023/12/11 13:55:07;;;;;;;;;4.50;2.00;;;;;;;;5069503;28;9312;-77
2023/12/11 13:57:35;;;;;;;;;3.75;3.75;;;;;;;;5069654;28;8865;-76
2023/12/11 14:00:04;;;;;;;;;3.25;3.25;;;;;;;;5069025;28;8867;-77
2023/12/11 14:02:34;;;;;;;;;9.75;5.00;;;;;;;;5069174;28;8803;-76
2023/12/11 14:05:03;;;;;;;;;4.50;2.75;;;;;;;;5069375;28;9633;-74
2023/12/11 14:07:31;;;;;;;;;5.50;2.75;;;;;;;;5070606;28;8851;-81
2023/12/11 14:09:58;;;;;;;;;4.00;2.50;;;;;;;;5060495;28;9620;-80
2023/12/11 14:12:25;;;;;;;;;3.75;3.00;;;;;;;;5073109;28;8846;-79
2023/12/11 14:14:52;;;;;;;;;3.75;3.75;;;;;;;;5075327;28;8865;-78
2023/12/11 14:17:21;;;;;;;;;4.50;4.25;;;;;;;;5063217;28;8863;-76
2023/12/11 14:19:49;;;;;;;;;7.50;3.50;;;;;;;;5073393;28;8962;-73
2023/12/11 14:22:16;;;;;;;;;6.50;4.00;;;;;;;;5064896;28;8842;-72
2023/12/11 14:24:43;;;;;;;;;8.75;3.25;;;;;;;;5076165;28;8873;-75
2023/12/11 14:27:11;;;;;;;;;3.00;3.00;;;;;;;;5074273;28;8969;-78
2023/12/11 14:29:38;;;;;;;;;7.00;4.50;;;;;;;;5069771;28;8991;-75
2023/12/11 14:32:05;;;;;;;;;5.00;2.50;;;;;;;;5068313;28;9727;-73
2023/12/11 14:34:34;;;;;;;;;6.00;2.25;;;;;;;;5071326;28;8835;-76
2023/12/11 14:37:01;;;;;;;;;3.75;2.00;;;;;;;;5071439;28;8843;-76
2023/12/11 14:39:31;;;;;;;;;3.75;2.75;;;;;;;;5070174;28;8843;-75
2023/12/11 14:41:58;;;;;;;;;3.50;3.50;;;;;;;;5060036;28;8850;-76
2023/12/11 14:44:25;;;;;;;;;4.25;3.25;;;;;;;;5052790;28;8953;-74
2023/12/11 14:46:52;;;;;;;;;5.75;4.00;;;;;;;;5068438;28;8969;-74
2023/12/11 14:49:20;;;;;;;;;5.00;3.00;;;;;;;;5067957;28;8854;-75
2023/12/11 14:51:49;;;;;;;;;6.00;4.75;;;;;;;;5059696;28;8846;-73
2023/12/11 14:54:17;;;;;;;;;2.00;2.00;;;;;;;;5063202;28;8903;-78
2023/12/11 14:56:44;;;;;;;;;5.00;2.00;;;;;;;;5060084;28;8863;-78
2023/12/11 14:59:11;;;;;;;;;2.75;2.25;;;;;;;;5064564;28;9000;-75
2023/12/11 15:01:38;;;;;;;;;4.25;3.00;;;;;;;;5060277;28;9161;-77
2023/12/11 15:04:06;;;;;;;;;3.25;1.25;;;;;;;;5056796;28;8966;-79